sensor_id;sensor_type;location;lat;lon;timestamp;pressure;altitude;pressure_sealevel;temperature;humidity
28911;BME280;16028;42.642;23.310;2023-08-17T00:02:21;94097.88;;;22.47;71.40
28911;BME280;16028;42.642;23.310;2023-08-17T00:04:50;94107.38;;;22.37;72.00
28911;BME280;16028;42.642;23.310;2023-08-17T00:07:16;94108.50;;;22.23;72.50
28911;BME280;16028;42.642;23.310;2023-08-17T00:09:43;94110.72;;;22.26;73.00
28911;BME280;16028;42.642;23.310;2023-08-17T00:12:10;94102.38;;;22.22;72.76
28911;BME280;16028;42.642;23.310;2023-08-17T00:17:04;94099.84;;;22.09;74.10
28911;BME280;16028;42.642;23.310;2023-08-17T00:19:31;94099.88;;;22.02;74.41
28911;BME280;16028;42.642;23.310;2023-08-17T00:21:58;94100.94;;;22.01;73.81
28911;BME280;16028;42.642;23.310;2023-08-17T00:24:24;94106.47;;;21.93;73.37
28911;BME280;16028;42.642;23.310;2023-08-17T00:26:51;94119.53;;;21.88;73.95
28911;BME280;16028;42.642;23.310;2023-08-17T00:29:18;94113.22;;;21.83;73.60
28911;BME280;16028;42.642;23.310;2023-08-17T00:31:47;94109.19;;;21.80;73.76
28911;BME280;16028;42.642;23.310;2023-08-17T00:34:13;94109.41;;;21.79;73.53
28911;BME280;16028;42.642;23.310;2023-08-17T00:36:40;94113.88;;;21.78;73.84
28911;BME280;16028;42.642;23.310;2023-08-17T00:39:07;94106.38;;;21.75;73.27
28911;BME280;16028;42.642;23.310;2023-08-17T00:41:34;94098.41;;;21.75;73.89
28911;BME280;16028;42.642;23.310;2023-08-17T00:44:00;94104.19;;;21.66;73.92
28911;BME280;16028;42.642;23.310;2023-08-17T00:46:27;94099.75;;;21.59;73.92
28911;BME280;16028;42.642;23.310;2023-08-17T00:48:56;94099.09;;;21.64;73.11
28911;BME280;16028;42.642;23.310;2023-08-17T00:51:23;94105.44;;;21.63;71.58
28911;BME280;16028;42.642;23.310;2023-08-17T00:53:50;94096.47;;;21.57;71.39
28911;BME280;16028;42.642;23.310;2023-08-17T00:56:17;94097.09;;;21.59;70.20
28911;BME280;16028;42.642;23.310;2023-08-17T00:58:44;94094.66;;;21.58;70.23
28911;BME280;16028;42.642;23.310;2023-08-17T01:01:11;94103.41;;;21.58;69.29
28911;BME280;16028;42.642;23.310;2023-08-17T01:03:39;94098.13;;;21.52;69.04
28911;BME280;16028;42.642;23.310;2023-08-17T01:06:08;94098.13;;;21.52;68.34
28911;BME280;16028;42.642;23.310;2023-08-17T01:08:37;94095.50;;;21.52;67.97
28911;BME280;16028;42.642;23.310;2023-08-17T01:11:08;94099.59;;;21.48;68.02
28911;BME280;16028;42.642;23.310;2023-08-17T01:13:46;94092.09;;;21.38;67.68
28911;BME280;16028;42.642;23.310;2023-08-17T01:16:17;94092.53;;;21.35;67.43
28911;BME280;16028;42.642;23.310;2023-08-17T01:18:47;94091.13;;;21.33;67.66
28911;BME280;16028;42.642;23.310;2023-08-17T01:21:17;94085.66;;;21.28;67.98
28911;BME280;16028;42.642;23.310;2023-08-17T01:23:45;94092.13;;;21.32;65.89
28911;BME280;16028;42.642;23.310;2023-08-17T01:26:12;94090.09;;;21.34;66.80
28911;BME280;16028;42.642;23.310;2023-08-17T01:28:41;94084.78;;;21.40;65.88
28911;BME280;16028;42.642;23.310;2023-08-17T01:31:11;94083.56;;;21.36;66.07
28911;BME280;16028;42.642;23.310;2023-08-17T01:33:44;94090.09;;;21.34;66.34
28911;BME280;16028;42.642;23.310;2023-08-17T01:36:19;94084.38;;;21.37;65.15
28911;BME280;16028;42.642;23.310;2023-08-17T01:38:51;94082.16;;;21.34;64.88
28911;BME280;16028;42.642;23.310;2023-08-17T01:41:20;94090.28;;;21.32;65.05
28911;BME280;16028;42.642;23.310;2023-08-17T01:43:49;94089.47;;;21.32;64.54
28911;BME280;16028;42.642;23.310;2023-08-17T01:46:17;94086.22;;;21.36;63.57
28911;BME280;16028;42.642;23.310;2023-08-17T01:48:45;94091.31;;;21.38;62.77
28911;BME280;16028;42.642;23.310;2023-08-17T01:51:17;94095.13;;;21.42;60.36
28911;BME280;16028;42.642;23.310;2023-08-17T01:53:44;94088.16;;;21.54;59.07
28911;BME280;16028;42.642;23.310;2023-08-17T01:56:13;94095.25;;;21.60;58.54
28911;BME280;16028;42.642;23.310;2023-08-17T01:58:40;94091.13;;;21.64;57.75
28911;BME280;16028;42.642;23.310;2023-08-17T02:01:07;94087.47;;;21.65;58.26
28911;BME280;16028;42.642;23.310;2023-08-17T02:03:33;94079.09;;;21.68;60.87
28911;BME280;16028;42.642;23.310;2023-08-17T02:06:00;94079.00;;;21.56;62.11
28911;BME280;16028;42.642;23.310;2023-08-17T02:08:27;94081.41;;;21.58;63.48
28911;BME280;16028;42.642;23.310;2023-08-17T02:10:54;94085.16;;;21.44;63.64
28911;BME280;16028;42.642;23.310;2023-08-17T02:13:22;94076.63;;;21.35;63.43
28911;BME280;16028;42.642;23.310;2023-08-17T02:15:49;94084.59;;;21.29;64.33
28911;BME280;16028;42.642;23.310;2023-08-17T02:18:15;94084.63;;;21.22;64.43
28911;BME280;16028;42.642;23.310;2023-08-17T02:20:42;94077.13;;;21.19;65.07
28911;BME280;16028;42.642;23.310;2023-08-17T02:23:09;94085.72;;;21.15;65.24
28911;BME280;16028;42.642;23.310;2023-08-17T02:25:38;94083.88;;;21.08;65.32
28911;BME280;16028;42.642;23.310;2023-08-17T02:28:05;94075.72;;;21.03;66.25
28911;BME280;16028;42.642;23.310;2023-08-17T02:30:33;94074.13;;;21.02;66.27
28911;BME280;16028;42.642;23.310;2023-08-17T02:33:00;94076.78;;;20.96;66.11
28911;BME280;16028;42.642;23.310;2023-08-17T02:35:27;94076.81;;;20.89;66.77
28911;BME280;16028;42.642;23.310;2023-08-17T02:37:54;94082.53;;;20.80;66.72
28911;BME280;16028;42.642;23.310;2023-08-17T02:40:20;94080.50;;;20.75;66.82
28911;BME280;16028;42.642;23.310;2023-08-17T02:42:47;94082.34;;;20.68;67.42
28911;BME280;16028;42.642;23.310;2023-08-17T02:45:14;94084.22;;;20.68;68.52
28911;BME280;16028;42.642;23.310;2023-08-17T02:47:42;94078.94;;;20.54;69.18
28911;BME280;16028;42.642;23.310;2023-08-17T02:50:09;94080.16;;;20.52;68.22
28911;BME280;16028;42.642;23.310;2023-08-17T02:52:36;94075.50;;;20.47;68.52
28911;BME280;16028;42.642;23.310;2023-08-17T02:55:04;94081.59;;;20.41;69.34
28911;BME280;16028;42.642;23.310;2023-08-17T02:57:31;94076.50;;;20.40;70.50
28911;BME280;16028;42.642;23.310;2023-08-17T02:59:57;94081.00;;;20.33;69.97
28911;BME280;16028;42.642;23.310;2023-08-17T03:02:24;94069.81;;;20.31;70.83
28911;BME280;16028;42.642;23.310;2023-08-17T03:04:52;94083.00;;;20.24;70.90
28911;BME280;16028;42.642;23.310;2023-08-17T03:07:19;94079.34;;;20.19;70.83
28911;BME280;16028;42.642;23.310;2023-08-17T03:09:45;94070.81;;;20.17;69.77
28911;BME280;16028;42.642;23.310;2023-08-17T03:12:12;94079.75;;;20.16;69.68
28911;BME280;16028;42.642;23.310;2023-08-17T03:14:39;94071.84;;;20.16;68.25
28911;BME280;16028;42.642;23.310;2023-08-17T03:17:06;94078.94;;;20.15;68.29
28911;BME280;16028;42.642;23.310;2023-08-17T03:19:32;94075.31;;;20.10;68.56
28911;BME280;16028;42.642;23.310;2023-08-17T03:22:00;94072.84;;;20.08;69.11
28911;BME280;16028;42.642;23.310;2023-08-17T03:24:27;94075.91;;;20.05;69.61
28911;BME280;16028;42.642;23.310;2023-08-17T03:26:54;94078.13;;;20.01;67.89
28911;BME280;16028;42.642;23.310;2023-08-17T03:29:21;94073.47;;;20.03;68.71
28911;BME280;16028;42.642;23.310;2023-08-17T03:31:47;94079.94;;;20.01;68.62
28911;BME280;16028;42.642;23.310;2023-08-17T03:34:15;94080.59;;;20.03;68.20
28911;BME280;16028;42.642;23.310;2023-08-17T03:36:42;94074.66;;;20.01;68.71
28911;BME280;16028;42.642;23.310;2023-08-17T03:39:10;94084.63;;;19.99;69.93
28911;BME280;16028;42.642;23.310;2023-08-17T03:41:37;94086.47;;;19.98;69.78
28911;BME280;16028;42.642;23.310;2023-08-17T03:44:04;94090.31;;;19.96;68.97
28911;BME280;16028;42.642;23.310;2023-08-17T03:46:32;94092.38;;;19.94;68.51
28911;BME280;16028;42.642;23.310;2023-08-17T03:48:59;94093.16;;;19.94;68.07
28911;BME280;16028;42.642;23.310;2023-08-17T03:51:26;94087.09;;;19.94;67.33
28911;BME280;16028;42.642;23.310;2023-08-17T03:53:52;94093.78;;;19.96;65.95
28911;BME280;16028;42.642;23.310;2023-08-17T03:56:20;94096.63;;;19.95;66.19
28911;BME280;16028;42.642;23.310;2023-08-17T03:58:47;94107.41;;;19.93;65.95
28911;BME280;16028;42.642;23.310;2023-08-17T04:01:14;94100.06;;;19.95;65.13
28911;BME280;16028;42.642;23.310;2023-08-17T04:03:41;94107.81;;;19.97;65.42
28911;BME280;16028;42.642;23.310;2023-08-17T04:06:07;94100.47;;;19.99;65.52
28911;BME280;16028;42.642;23.310;2023-08-17T04:08:35;94103.31;;;19.97;65.65
28911;BME280;16028;42.642;23.310;2023-08-17T04:11:03;94099.66;;;19.98;65.59
28911;BME280;16028;42.642;23.310;2023-08-17T04:13:31;94101.09;;;20.01;65.91
28911;BME280;16028;42.642;23.310;2023-08-17T04:15:58;94103.31;;;20.04;65.79
28911;BME280;16028;42.642;23.310;2023-08-17T04:18:24;94102.31;;;20.05;65.41
28911;BME280;16028;42.642;23.310;2023-08-17T04:20:51;94102.31;;;20.12;65.15
28911;BME280;16028;42.642;23.310;2023-08-17T04:23:18;94098.84;;;20.18;64.96
28911;BME280;16028;42.642;23.310;2023-08-17T04:25:46;94101.09;;;20.21;65.27
28911;BME280;16028;42.642;23.310;2023-08-17T04:28:13;94107.22;;;20.28;65.40
28911;BME280;16028;42.642;23.310;2023-08-17T04:30:42;94103.75;;;20.34;64.21
28911;BME280;16028;42.642;23.310;2023-08-17T04:33:08;94101.72;;;20.36;64.87
28911;BME280;16028;42.642;23.310;2023-08-17T04:35:35;94103.56;;;20.42;65.00
28911;BME280;16028;42.642;23.310;2023-08-17T04:38:02;94103.56;;;20.48;64.12
28911;BME280;16028;42.642;23.310;2023-08-17T04:40:29;94106.16;;;20.55;63.77
28911;BME280;16028;42.642;23.310;2023-08-17T04:42:56;94101.28;;;20.65;65.37
28911;BME280;16028;42.642;23.310;2023-08-17T04:45:23;94088.84;;;20.72;66.07
28911;BME280;16028;42.642;23.310;2023-08-17T04:47:51;94093.94;;;20.80;65.18
28911;BME280;16028;42.642;23.310;2023-08-17T04:50:18;94089.81;;;20.91;64.79
28911;BME280;16028;42.642;23.310;2023-08-17T04:52:45;94099.97;;;21.00;63.17
28911;BME280;16028;42.642;23.310;2023-08-17T04:55:12;94090.19;;;21.07;63.27
28911;BME280;16028;42.642;23.310;2023-08-17T04:57:39;94092.00;;;21.14;63.54
28911;BME280;16028;42.642;23.310;2023-08-17T05:00:07;94089.72;;;21.24;65.80
28911;BME280;16028;42.642;23.310;2023-08-17T05:02:35;94092.72;;;21.40;63.77
28911;BME280;16028;42.642;23.310;2023-08-17T05:05:05;94087.16;;;21.48;65.14
28911;BME280;16028;42.642;23.310;2023-08-17T05:07:32;94084.91;;;21.52;66.13
28911;BME280;16028;42.642;23.310;2023-08-17T05:10:00;94091.97;;;21.64;65.80
28911;BME280;16028;42.642;23.310;2023-08-17T05:12:26;94087.22;;;21.73;64.84
28911;BME280;16028;42.642;23.310;2023-08-17T05:14:53;94084.00;;;22.02;64.32
28911;BME280;16028;42.642;23.310;2023-08-17T05:17:20;94093.69;;;22.15;63.80
28911;BME280;16028;42.642;23.310;2023-08-17T05:19:47;94085.66;;;22.22;64.47
28911;BME280;16028;42.642;23.310;2023-08-17T05:22:15;94093.50;;;22.35;64.44
28911;BME280;16028;42.642;23.310;2023-08-17T05:24:42;94090.22;;;22.39;64.41
28911;BME280;16028;42.642;23.310;2023-08-17T05:27:10;94098.84;;;22.53;63.63
28911;BME280;16028;42.642;23.310;2023-08-17T05:29:36;94098.06;;;22.77;61.60
28911;BME280;16028;42.642;23.310;2023-08-17T05:32:04;94094.97;;;22.80;61.84
28911;BME280;16028;42.642;23.310;2023-08-17T05:34:31;94094.06;;;22.86;62.72
28911;BME280;16028;42.642;23.310;2023-08-17T05:36:57;94102.84;;;22.87;63.91
28911;BME280;16028;42.642;23.310;2023-08-17T05:39:26;94095.66;;;22.69;64.65
28911;BME280;16028;42.642;23.310;2023-08-17T05:41:53;94093.72;;;22.58;65.85
28911;BME280;16028;42.642;23.310;2023-08-17T05:44:19;94092.03;;;22.63;66.97
28911;BME280;16028;42.642;23.310;2023-08-17T05:46:46;94097.75;;;22.67;66.93
28911;BME280;16028;42.642;23.310;2023-08-17T05:49:13;94093.94;;;22.56;66.99
28911;BME280;16028;42.642;23.310;2023-08-17T05:51:40;94099.41;;;22.61;69.71
28911;BME280;16028;42.642;23.310;2023-08-17T05:54:07;94098.13;;;22.71;69.10
28911;BME280;16028;42.642;23.310;2023-08-17T05:56:35;94097.09;;;22.90;67.11
28911;BME280;16028;42.642;23.310;2023-08-17T05:59:03;94106.91;;;22.89;67.35
28911;BME280;16028;42.642;23.310;2023-08-17T06:01:30;94115.44;;;22.91;66.01
28911;BME280;16028;42.642;23.310;2023-08-17T06:03:59;94108.47;;;22.97;65.30
28911;BME280;16028;42.642;23.310;2023-08-17T06:06:26;94107.66;;;22.96;65.37
28911;BME280;16028;42.642;23.310;2023-08-17T06:08:53;94110.06;;;22.98;67.87
28911;BME280;16028;42.642;23.310;2023-08-17T06:11:20;94111.31;;;23.13;66.50
28911;BME280;16028;42.642;23.310;2023-08-17T06:13:48;94115.16;;;23.17;67.81
28911;BME280;16028;42.642;23.310;2023-08-17T06:16:15;94115.31;;;23.23;66.21
28911;BME280;16028;42.642;23.310;2023-08-17T06:18:42;94107.13;;;23.24;66.17
28911;BME280;16028;42.642;23.310;2023-08-17T06:21:08;94111.63;;;23.24;66.78
28911;BME280;16028;42.642;23.310;2023-08-17T06:23:35;94115.00;;;23.31;66.28
28911;BME280;16028;42.642;23.310;2023-08-17T06:26:02;94109.94;;;23.47;63.83
28911;BME280;16028;42.642;23.310;2023-08-17T06:28:29;94096.56;;;23.54;63.36
28911;BME280;16028;42.642;23.310;2023-08-17T06:30:57;94104.59;;;23.65;63.77
28911;BME280;16028;42.642;23.310;2023-08-17T06:33:24;94116.56;;;23.86;62.52
28911;BME280;16028;42.642;23.310;2023-08-17T06:35:51;94119.28;;;24.09;63.14
28911;BME280;16028;42.642;23.310;2023-08-17T06:38:18;94119.72;;;24.36;60.16
28911;BME280;16028;42.642;23.310;2023-08-17T06:40:45;94118.00;;;24.42;58.55
28911;BME280;16028;42.642;23.310;2023-08-17T06:43:12;94114.75;;;24.28;59.86
28911;BME280;16028;42.642;23.310;2023-08-17T06:45:41;94113.22;;;24.32;60.08
28911;BME280;16028;42.642;23.310;2023-08-17T06:48:09;94110.00;;;24.42;60.02
28911;BME280;16028;42.642;23.310;2023-08-17T06:50:36;94111.84;;;24.41;59.64
28911;BME280;16028;42.642;23.310;2023-08-17T06:53:04;94119.63;;;24.43;59.14
28911;BME280;16028;42.642;23.310;2023-08-17T06:55:30;94116.72;;;24.33;59.24
28911;BME280;16028;42.642;23.310;2023-08-17T06:57:58;94114.25;;;24.19;59.49
28911;BME280;16028;42.642;23.310;2023-08-17T07:00:25;94120.91;;;24.10;60.34
28911;BME280;16028;42.642;23.310;2023-08-17T07:02:52;94108.56;;;24.16;60.78
28911;BME280;16028;42.642;23.310;2023-08-17T07:05:20;94111.38;;;24.21;60.39
28911;BME280;16028;42.642;23.310;2023-08-17T07:07:47;94105.47;;;24.19;60.95
28911;BME280;16028;42.642;23.310;2023-08-17T07:10:13;94116.13;;;24.31;60.77
28911;BME280;16028;42.642;23.310;2023-08-17T07:12:40;94116.84;;;24.49;59.17
28911;BME280;16028;42.642;23.310;2023-08-17T07:15:07;94119.75;;;24.59;57.87
28911;BME280;16028;42.642;23.310;2023-08-17T07:17:34;94104.69;;;24.76;58.15
28911;BME280;16028;42.642;23.310;2023-08-17T07:20:02;94114.94;;;24.91;54.10
28911;BME280;16028;42.642;23.310;2023-08-17T07:22:31;94106.34;;;24.89;53.59
28911;BME280;16028;42.642;23.310;2023-08-17T07:24:58;94111.66;;;24.89;55.31
28911;BME280;16028;42.642;23.310;2023-08-17T07:27:25;94108.09;;;24.95;55.04
28911;BME280;16028;42.642;23.310;2023-08-17T07:29:52;94109.84;;;25.01;53.87
28911;BME280;16028;42.642;23.310;2023-08-17T07:32:19;94113.59;;;25.28;51.81
28911;BME280;16028;42.642;23.310;2023-08-17T07:34:46;94113.09;;;25.55;50.19
28911;BME280;16028;42.642;23.310;2023-08-17T07:37:13;94107.06;;;25.48;50.38
28911;BME280;16028;42.642;23.310;2023-08-17T07:39:41;94106.38;;;25.41;51.17
28911;BME280;16028;42.642;23.310;2023-08-17T07:42:08;94110.31;;;25.50;50.50
28911;BME280;16028;42.642;23.310;2023-08-17T07:44:34;94105.09;;;25.55;50.14
28911;BME280;16028;42.642;23.310;2023-08-17T07:47:01;94101.50;;;25.61;50.26
28911;BME280;16028;42.642;23.310;2023-08-17T07:49:28;94109.84;;;25.53;51.50
28911;BME280;16028;42.642;23.310;2023-08-17T07:51:55;94107.44;;;25.40;51.30
28911;BME280;16028;42.642;23.310;2023-08-17T07:54:22;94099.31;;;25.46;50.32
28911;BME280;16028;42.642;23.310;2023-08-17T07:56:50;94104.09;;;25.72;49.79
28911;BME280;16028;42.642;23.310;2023-08-17T07:59:17;94107.22;;;25.98;48.75
28911;BME280;16028;42.642;23.310;2023-08-17T08:01:44;94096.31;;;25.83;50.45
28911;BME280;16028;42.642;23.310;2023-08-17T08:04:10;94093.59;;;25.66;50.38
28911;BME280;16028;42.642;23.310;2023-08-17T08:06:37;94091.50;;;25.68;51.05
28911;BME280;16028;42.642;23.310;2023-08-17T08:09:04;94089.53;;;25.63;52.01
28911;BME280;16028;42.642;23.310;2023-08-17T08:11:31;94081.13;;;25.55;52.99
28911;BME280;16028;42.642;23.310;2023-08-17T08:14:00;94072.22;;;25.77;52.98
28911;BME280;16028;42.642;23.310;2023-08-17T08:16:27;94081.13;;;25.83;52.65
28911;BME280;16028;42.642;23.310;2023-08-17T08:18:55;94082.75;;;25.84;52.61
28911;BME280;16028;42.642;23.310;2023-08-17T08:21:22;94080.59;;;26.14;52.23
28911;BME280;16028;42.642;23.310;2023-08-17T08:23:49;94083.34;;;26.03;52.08
28911;BME280;16028;42.642;23.310;2023-08-17T08:26:16;94085.00;;;26.20;51.33
28911;BME280;16028;42.642;23.310;2023-08-17T08:28:43;94075.75;;;26.11;52.38
28911;BME280;16028;42.642;23.310;2023-08-17T08:31:11;94081.06;;;26.11;53.26
28911;BME280;16028;42.642;23.310;2023-08-17T08:33:38;94080.50;;;26.38;50.43
28911;BME280;16028;42.642;23.310;2023-08-17T08:36:05;94078.84;;;26.20;52.06
28911;BME280;16028;42.642;23.310;2023-08-17T08:38:32;94077.25;;;26.36;51.08
28911;BME280;16028;42.642;23.310;2023-08-17T08:40:59;94072.81;;;26.24;52.82
28911;BME280;16028;42.642;23.310;2023-08-17T08:43:26;94080.31;;;26.27;51.26
28911;BME280;16028;42.642;23.310;2023-08-17T08:45:54;94077.88;;;26.43;51.91
28911;BME280;16028;42.642;23.310;2023-08-17T08:48:22;94081.91;;;26.62;49.54
28911;BME280;16028;42.642;23.310;2023-08-17T08:50:54;94078.88;;;26.53;50.70
28911;BME280;16028;42.642;23.310;2023-08-17T08:53:30;94066.50;;;26.47;52.35
28911;BME280;16028;42.642;23.310;2023-08-17T08:55:59;94079.91;;;26.52;50.68
28911;BME280;16028;42.642;23.310;2023-08-17T08:58:26;94070.53;;;26.50;51.09
28911;BME280;16028;42.642;23.310;2023-08-17T09:00:54;94069.97;;;26.48;52.39
28911;BME280;16028;42.642;23.310;2023-08-17T09:03:23;94067.06;;;26.33;51.68
28911;BME280;16028;42.642;23.310;2023-08-17T09:05:51;94057.78;;;26.35;52.18
28911;BME280;16028;42.642;23.310;2023-08-17T09:08:21;94066.56;;;26.52;49.99
28911;BME280;16028;42.642;23.310;2023-08-17T09:10:48;94057.69;;;26.47;51.38
28911;BME280;16028;42.642;23.310;2023-08-17T09:13:15;94061.38;;;26.46;50.28
28911;BME280;16028;42.642;23.310;2023-08-17T09:15:42;94052.28;;;26.42;52.54
28911;BME280;16028;42.642;23.310;2023-08-17T09:18:09;94053.97;;;26.64;51.37
28911;BME280;16028;42.642;23.310;2023-08-17T09:20:39;94055.41;;;26.55;51.48
28911;BME280;16028;42.642;23.310;2023-08-17T09:23:11;94045.84;;;26.59;50.10
28911;BME280;16028;42.642;23.310;2023-08-17T09:25:39;94045.13;;;26.80;49.68
28911;BME280;16028;42.642;23.310;2023-08-17T09:28:10;94053.03;;;26.92;48.21
28911;BME280;16028;42.642;23.310;2023-08-17T09:30:55;94035.34;;;26.86;49.69
28911;BME280;16028;42.642;23.310;2023-08-17T09:33:23;94042.19;;;26.99;49.67
28911;BME280;16028;42.642;23.310;2023-08-17T09:35:52;94035.53;;;27.01;50.62
28911;BME280;16028;42.642;23.310;2023-08-17T09:38:19;94027.69;;;26.95;49.94
28911;BME280;16028;42.642;23.310;2023-08-17T09:40:46;94038.34;;;27.11;48.15
28911;BME280;16028;42.642;23.310;2023-08-17T09:43:14;94026.66;;;27.17;48.10
28911;BME280;16028;42.642;23.310;2023-08-17T09:45:42;94024.59;;;27.24;47.50
28911;BME280;16028;42.642;23.310;2023-08-17T09:48:10;94023.28;;;27.27;46.94
28911;BME280;16028;42.642;23.310;2023-08-17T09:50:36;94019.41;;;27.40;47.71
28911;BME280;16028;42.642;23.310;2023-08-17T09:53:05;94026.88;;;27.59;46.64
28911;BME280;16028;42.642;23.310;2023-08-17T09:55:31;94020.72;;;27.59;46.49
28911;BME280;16028;42.642;23.310;2023-08-17T09:57:59;94016.19;;;27.59;45.41
28911;BME280;16028;42.642;23.310;2023-08-17T10:00:27;94018.66;;;27.66;46.23
28911;BME280;16028;42.642;23.310;2023-08-17T10:02:55;94033.63;;;27.94;42.75
28911;BME280;16028;42.642;23.310;2023-08-17T10:05:28;94002.56;;;27.88;46.43
28911;BME280;16028;42.642;23.310;2023-08-17T10:07:57;94018.63;;;28.14;44.38
28911;BME280;16028;42.642;23.310;2023-08-17T10:10:29;94006.75;;;28.05;44.87
28911;BME280;16028;42.642;23.310;2023-08-17T10:13:03;93994.41;;;28.04;46.16
28911;BME280;16028;42.642;23.310;2023-08-17T10:15:34;94026.75;;;28.29;42.45
28911;BME280;16028;42.642;23.310;2023-08-17T10:18:12;94022.84;;;28.42;42.20
28911;BME280;16028;42.642;23.310;2023-08-17T10:20:42;94012.34;;;28.35;44.36
28911;BME280;16028;42.642;23.310;2023-08-17T10:23:15;94021.22;;;28.41;42.60
28911;BME280;16028;42.642;23.310;2023-08-17T10:25:45;94012.34;;;28.35;42.21
28911;BME280;16028;42.642;23.310;2023-08-17T10:28:15;94004.34;;;28.41;43.82
28911;BME280;16028;42.642;23.310;2023-08-17T10:30:42;94000.09;;;28.45;43.73
28911;BME280;16028;42.642;23.310;2023-08-17T10:33:10;94002.88;;;28.60;43.16
28911;BME280;16028;42.642;23.310;2023-08-17T10:35:38;94008.50;;;28.63;42.46
28911;BME280;16028;42.642;23.310;2023-08-17T10:38:07;93987.44;;;28.72;42.79
28911;BME280;16028;42.642;23.310;2023-08-17T10:40:37;94023.56;;;29.16;39.92
28911;BME280;16028;42.642;23.310;2023-08-17T10:43:07;93994.47;;;28.88;43.19
28911;BME280;16028;42.642;23.310;2023-08-17T10:45:34;94000.13;;;28.86;42.19
28911;BME280;16028;42.642;23.310;2023-08-17T10:48:25;93991.31;;;28.96;42.61
28911;BME280;16028;42.642;23.310;2023-08-17T10:51:04;94004.50;;;29.08;40.60
28911;BME280;16028;42.642;23.310;2023-08-17T10:53:37;94012.38;;;29.29;39.67
28911;BME280;16028;42.642;23.310;2023-08-17T10:56:10;94016.97;;;29.29;38.78
28911;BME280;16028;42.642;23.310;2023-08-17T10:58:39;94004.25;;;29.14;39.60
28911;BME280;16028;42.642;23.310;2023-08-17T11:01:06;93996.53;;;29.23;39.46
28911;BME280;16028;42.642;23.310;2023-08-17T11:03:33;94003.28;;;29.25;38.31
28911;BME280;16028;42.642;23.310;2023-08-17T11:06:14;93993.53;;;29.14;38.99
28911;BME280;16028;42.642;23.310;2023-08-17T11:08:51;93971.56;;;29.17;41.10
28911;BME280;16028;42.642;23.310;2023-08-17T11:11:20;93974.59;;;29.31;41.35
28911;BME280;16028;42.642;23.310;2023-08-17T11:13:49;94006.56;;;29.53;37.74
28911;BME280;16028;42.642;23.310;2023-08-17T11:16:17;94009.84;;;29.75;37.77
28911;BME280;16028;42.642;23.310;2023-08-17T11:18:45;94005.81;;;29.67;37.73
28911;BME280;16028;42.642;23.310;2023-08-17T11:21:12;94005.81;;;29.67;36.45
28911;BME280;16028;42.642;23.310;2023-08-17T11:23:41;93984.06;;;29.69;40.51
28911;BME280;16028;42.642;23.310;2023-08-17T11:26:08;93999.16;;;29.85;36.86
28911;BME280;16028;42.642;23.310;2023-08-17T11:28:35;93989.53;;;29.99;37.23
28911;BME280;16028;42.642;23.310;2023-08-17T11:31:06;93955.97;;;30.02;40.10
28911;BME280;16028;42.642;23.310;2023-08-17T11:33:34;93986.28;;;29.97;38.19
28911;BME280;16028;42.642;23.310;2023-08-17T11:36:04;93963.97;;;29.81;39.86
28911;BME280;16028;42.642;23.310;2023-08-17T11:38:32;93964.53;;;30.04;38.60
28911;BME280;16028;42.642;23.310;2023-08-17T11:40:59;93943.06;;;30.14;40.54
28911;BME280;16028;42.642;23.310;2023-08-17T11:43:27;93958.88;;;30.35;38.42
28911;BME280;16028;42.642;23.310;2023-08-17T11:45:55;93965.91;;;30.21;38.19
28911;BME280;16028;42.642;23.310;2023-08-17T11:48:26;93936.09;;;30.23;41.33
28911;BME280;16028;42.642;23.310;2023-08-17T11:50:53;93955.66;;;30.28;39.05
28911;BME280;16028;42.642;23.310;2023-08-17T11:53:20;93961.31;;;30.42;39.02
28911;BME280;16028;42.642;23.310;2023-08-17T11:55:48;93954.31;;;30.36;39.46
28911;BME280;16028;42.642;23.310;2023-08-17T11:58:15;93962.66;;;30.29;39.17
28911;BME280;16028;42.642;23.310;2023-08-17T12:00:43;93957.28;;;30.09;38.81
28911;BME280;16028;42.642;23.310;2023-08-17T12:03:13;93937.19;;;29.91;40.56
28911;BME280;16028;42.642;23.310;2023-08-17T12:05:43;93930.75;;;30.03;41.85
28911;BME280;16028;42.642;23.310;2023-08-17T12:08:12;93944.94;;;30.13;40.04
28911;BME280;16028;42.642;23.310;2023-08-17T12:10:39;93955.13;;;30.26;39.76
28911;BME280;16028;42.642;23.310;2023-08-17T12:13:11;93935.03;;;30.09;40.77
28911;BME280;16028;42.642;23.310;2023-08-17T12:15:37;93938.25;;;29.96;40.56
28911;BME280;16028;42.642;23.310;2023-08-17T12:18:05;93920.81;;;29.93;43.82
28911;BME280;16028;42.642;23.310;2023-08-17T12:20:33;93935.56;;;29.85;41.79
28911;BME280;16028;42.642;23.310;2023-08-17T12:23:03;93938.78;;;30.18;40.56
28911;BME280;16028;42.642;23.310;2023-08-17T12:25:30;93937.44;;;30.05;40.12
28911;BME280;16028;42.642;23.310;2023-08-17T12:27:58;93912.50;;;30.05;43.54
28911;BME280;16028;42.642;23.310;2023-08-17T12:30:26;93927.78;;;30.04;42.02
28911;BME280;16028;42.642;23.310;2023-08-17T12:32:54;93923.22;;;30.25;40.47
28911;BME280;16028;42.642;23.310;2023-08-17T12:35:20;93924.28;;;30.24;40.52
28911;BME280;16028;42.642;23.310;2023-08-17T12:37:50;93936.63;;;30.45;40.21
28911;BME280;16028;42.642;23.310;2023-08-17T12:40:18;93929.91;;;30.32;41.06
28911;BME280;16028;42.642;23.310;2023-08-17T12:42:45;93939.56;;;30.49;39.97
28911;BME280;16028;42.642;23.310;2023-08-17T12:45:15;93936.34;;;30.36;40.32
28911;BME280;16028;42.642;23.310;2023-08-17T12:47:42;93930.69;;;30.38;40.49
28911;BME280;16028;42.642;23.310;2023-08-17T12:50:10;93921.56;;;30.39;42.26
28911;BME280;16028;42.642;23.310;2023-08-17T12:52:37;93910.31;;;30.37;42.79
28911;BME280;16028;42.642;23.310;2023-08-17T12:55:04;93918.88;;;30.29;43.75
28911;BME280;16028;42.642;23.310;2023-08-17T12:57:32;93935.53;;;30.51;41.16